createdAt,value
2019-06-01T00:00:23.896Z,85.39
2019-06-01T00:02:57.435Z,85.79
2019-06-01T00:05:28.696Z,85.63
2019-06-01T00:08:00.695Z,85.81
2019-06-01T00:10:31.805Z,85.57
2019-06-01T00:13:03.584Z,85.69
2019-06-01T00:15:34.651Z,85.95
2019-06-01T00:18:05.867Z,85.81
2019-06-01T00:20:36.768Z,85.83
2019-06-01T00:23:07.967Z,85.76
2019-06-01T00:25:40.429Z,85.71
2019-06-01T00:28:11.513Z,85.80
2019-06-01T00:30:43.798Z,85.16
2019-06-01T00:33:15.097Z,85.44
2019-06-01T00:35:47.463Z,85.21
2019-06-01T00:38:18.996Z,85.70
2019-06-01T00:40:50.441Z,86.07
2019-06-01T00:43:21.860Z,85.84
2019-06-01T00:45:53.252Z,86.09
2019-06-01T00:48:24.393Z,85.95
2019-06-01T00:50:55.907Z,85.62
2019-06-01T00:53:27.252Z,85.29
2019-06-01T00:55:58.603Z,85.45
2019-06-01T00:58:29.585Z,85.77
2019-06-01T01:01:00.717Z,85.93
2019-06-01T01:03:32.035Z,85.64
2019-06-01T01:06:03.325Z,85.59
2019-06-01T01:08:34.404Z,85.62
2019-06-01T01:11:05.518Z,87.04
2019-06-01T01:13:36.814Z,85.24
2019-06-01T01:16:08.205Z,86.19
2019-06-01T01:18:39.116Z,85.88
2019-06-01T01:21:10.097Z,85.00
2019-06-01T01:23:40.948Z,84.79
2019-06-01T01:26:12.244Z,84.87
2019-06-01T01:28:43.274Z,84.46
2019-06-01T01:31:14.598Z,84.47
2019-06-01T01:33:45.802Z,84.25
2019-06-01T01:36:17.131Z,84.09
2019-06-01T01:38:48.417Z,84.14
2019-06-01T01:41:19.657Z,84.39
2019-06-01T01:43:50.776Z,84.28
2019-06-01T01:46:22.106Z,83.61
2019-06-01T01:48:54.209Z,83.61
2019-06-01T01:51:25.354Z,83.36
2019-06-01T01:53:56.711Z,83.24
2019-06-01T01:56:27.945Z,83.27
2019-06-01T01:58:59.105Z,83.24
2019-06-01T02:01:30.300Z,82.14
2019-06-01T02:04:01.526Z,82.04
2019-06-01T02:06:32.596Z,81.68
2019-06-01T02:09:05.593Z,83.47
2019-06-01T02:11:37.757Z,83.16
2019-06-01T02:14:09.361Z,82.88
2019-06-01T02:16:40.218Z,83.11
2019-06-01T02:19:11.418Z,82.37
2019-06-01T02:21:42.606Z,83.40
2019-06-01T02:24:13.770Z,83.26
2019-06-01T02:26:44.868Z,83.26
2019-06-01T02:29:16.203Z,83.19
2019-06-01T02:31:47.214Z,83.47
2019-06-01T02:34:18.554Z,83.03
2019-06-01T02:36:49.732Z,83.01
2019-06-01T02:39:21.069Z,82.25
2019-06-01T02:41:52.258Z,82.22
2019-06-01T02:44:23.399Z,82.15
2019-06-01T02:46:55.392Z,82.22
2019-06-01T02:49:26.700Z,80.79
2019-06-01T02:51:57.687Z,81.36
2019-06-01T02:54:28.793Z,81.57
2019-06-01T02:57:00.240Z,81.83
2019-06-01T02:59:31.253Z,81.70
2019-06-01T03:02:08.972Z,81.73
2019-06-01T03:04:35.365Z,81.56
2019-06-01T03:07:08.788Z,81.32
2019-06-01T03:09:41.443Z,81.62
2019-06-01T03:12:15.652Z,81.44
2019-06-01T03:14:49.391Z,81.54
2019-06-01T03:17:24.181Z,80.89
2019-06-01T03:19:57.602Z,80.89
2019-06-01T03:22:30.051Z,82.68
2019-06-01T03:25:03.884Z,81.83
2019-06-01T03:27:36.854Z,81.91
2019-06-01T03:30:14.595Z,82.19
2019-06-01T03:32:44.002Z,82.62
2019-06-01T03:35:16.226Z,83.05
2019-06-01T03:37:47.311Z,83.17
2019-06-01T03:40:23.711Z,82.61
2019-06-01T03:42:51.581Z,82.28
2019-06-01T03:45:22.835Z,81.79
2019-06-01T03:47:53.855Z,81.50
2019-06-01T03:50:25.240Z,81.24
2019-06-01T03:52:56.216Z,80.82
2019-06-01T03:55:27.448Z,81.34
2019-06-01T03:57:58.521Z,81.48
2019-06-01T04:00:29.585Z,80.98
2019-06-01T04:03:00.865Z,80.12
2019-06-01T04:05:31.891Z,79.94
2019-06-01T04:08:03.479Z,79.78
2019-06-01T04:10:34.720Z,79.90
2019-06-01T04:13:05.799Z,79.53
2019-06-01T04:15:36.976Z,79.52
2019-06-01T04:18:08.415Z,79.51
2019-06-01T04:20:39.533Z,79.51
2019-06-01T04:23:10.464Z,78.91
2019-06-01T04:25:42.490Z,79.62
2019-06-01T04:28:13.602Z,78.74
2019-06-01T04:30:45.100Z,78.74
2019-06-01T04:33:16.396Z,78.53
2019-06-01T04:35:48.022Z,79.01
2019-06-01T04:38:19.154Z,78.62
2019-06-01T04:40:50.193Z,79.27
2019-06-01T04:43:21.401Z,77.50
2019-06-01T04:45:52.530Z,77.50
2019-06-01T04:48:23.401Z,77.43
2019-06-01T04:50:54.397Z,77.43
2019-06-01T04:53:25.551Z,76.98
2019-06-01T04:55:56.702Z,76.98
2019-06-01T04:58:27.860Z,77.69
2019-06-01T05:00:59.219Z,76.82
2019-06-01T05:03:30.288Z,76.82
2019-06-01T05:06:01.462Z,77.07
2019-06-01T05:08:32.746Z,76.75
2019-06-01T05:11:06.590Z,75.69
2019-06-01T05:13:36.487Z,76.68
2019-06-01T05:16:07.888Z,76.68
2019-06-01T05:18:39.143Z,76.33
2019-06-01T05:21:10.470Z,75.83
2019-06-01T05:23:41.509Z,75.83
2019-06-01T05:26:13.186Z,75.49
2019-06-01T05:28:44.606Z,75.63
2019-06-01T05:31:24.205Z,75.64
2019-06-01T05:33:48.943Z,76.40
2019-06-01T05:36:20.045Z,76.40
2019-06-01T05:38:51.036Z,75.66
2019-06-01T05:41:22.268Z,75.66
2019-06-01T05:43:53.241Z,73.74
2019-06-01T05:46:24.400Z,74.26
2019-06-01T05:48:55.445Z,74.26
2019-06-01T05:51:27.470Z,73.51
2019-06-01T05:53:58.333Z,73.51
2019-06-01T05:56:29.256Z,71.66
2019-06-01T05:59:00.043Z,71.29
2019-06-01T06:01:31.027Z,70.71
2019-06-01T06:04:02.186Z,72.28
2019-06-01T06:06:33.044Z,70.71
2019-06-01T06:09:05.060Z,72.00
2019-06-01T06:11:36.323Z,72.00
2019-06-01T06:14:08.775Z,71.62
2019-06-01T06:16:40.054Z,70.97
2019-06-01T06:19:12.528Z,70.85
2019-06-01T06:21:44.424Z,70.46
2019-06-01T06:24:16.386Z,70.59
2019-06-01T06:26:47.705Z,70.47
2019-06-01T06:29:19.015Z,70.47
2019-06-01T06:31:50.044Z,68.99
2019-06-01T06:34:21.664Z,68.59
2019-06-01T06:36:53.812Z,66.88
2019-06-01T06:39:24.917Z,66.41
2019-06-01T06:41:56.249Z,67.36
2019-06-01T06:44:27.327Z,67.36
2019-06-01T06:46:58.364Z,68.10
2019-06-01T06:49:29.403Z,66.83
2019-06-01T06:52:00.628Z,67.30
2019-06-01T06:54:31.990Z,66.58
2019-06-01T06:57:03.437Z,63.27
2019-06-01T06:59:34.347Z,62.46
2019-06-01T07:02:05.647Z,61.43
2019-06-01T07:04:37.494Z,63.00
2019-06-01T07:07:08.907Z,63.13
2019-06-01T07:09:41.596Z,63.35
2019-06-01T07:12:12.519Z,63.20
2019-06-01T07:14:43.815Z,63.66
2019-06-01T07:17:15.953Z,63.50
2019-06-01T07:19:49.367Z,64.83
2019-06-01T07:22:21.576Z,62.92
2019-06-01T07:24:55.836Z,60.81
2019-06-01T07:27:32.848Z,58.14
2019-06-01T07:30:49.878Z,59.27
2019-06-01T07:33:26.442Z,60.14
2019-06-01T07:36:01.610Z,59.81
2019-06-01T07:38:49.125Z,58.51
2019-06-01T07:42:11.910Z,57.75
2019-06-01T07:44:52.303Z,56.53
2019-06-01T07:47:27.509Z,52.89
2019-06-01T09:30:07.092Z,46.50
2019-06-01T09:32:38.084Z,45.88
2019-06-01T09:35:09.463Z,44.55
2019-06-01T09:37:40.726Z,46.15
2019-06-01T09:40:29.454Z,47.88
2019-06-01T09:43:00.315Z,45.97
2019-06-01T09:45:32.824Z,45.73
2019-06-01T09:48:04.635Z,45.50
2019-06-01T09:50:35.567Z,43.46
2019-06-01T09:53:06.516Z,45.23
2019-06-01T09:55:38.418Z,44.48
2019-06-01T09:58:09.378Z,44.65
2019-06-01T10:00:43.570Z,42.68
2019-06-01T10:03:13.078Z,42.38
2019-06-01T10:05:58.434Z,41.13
2019-06-01T10:08:16.900Z,43.61
2019-06-01T10:10:47.970Z,41.88
2019-06-01T10:13:18.885Z,41.37
2019-06-01T10:15:49.977Z,44.66
2019-06-01T10:18:20.853Z,44.60
2019-06-01T10:20:52.031Z,43.58
2019-06-01T10:23:22.944Z,42.02
2019-06-01T10:25:54.027Z,43.77
2019-06-01T10:28:25.276Z,42.74
2019-06-01T10:30:56.096Z,41.37
2019-06-01T10:33:27.445Z,42.76
2019-06-01T10:35:58.350Z,44.00
2019-06-01T10:38:29.361Z,44.86
2019-06-01T10:41:00.401Z,43.70
2019-06-01T10:43:33.714Z,44.33
2019-06-01T10:46:05.496Z,41.86
2019-06-01T10:48:36.343Z,41.55
2019-06-01T10:51:07.468Z,41.18
2019-06-01T10:53:38.405Z,41.60
2019-06-01T10:56:09.327Z,42.20
2019-06-01T10:58:58.789Z,40.51
2019-06-01T11:01:13.255Z,43.02
2019-06-01T11:03:44.704Z,40.32
2019-06-01T11:06:15.690Z,41.32
2019-06-01T11:08:47.807Z,42.12
2019-06-01T11:11:18.792Z,41.37
2019-06-01T11:13:49.766Z,40.18
2019-06-01T11:16:20.608Z,40.43
2019-06-01T11:18:51.526Z,40.69
2019-06-01T11:21:22.468Z,41.96
2019-06-01T11:23:53.379Z,39.38
2019-06-01T11:26:24.310Z,40.91
2019-06-01T11:28:55.407Z,39.82
2019-06-01T11:31:26.177Z,43.18
2019-06-01T11:33:57.048Z,44.02
2019-06-01T11:36:27.812Z,42.24
2019-06-01T11:38:58.749Z,43.33
2019-06-01T11:41:29.537Z,42.89
2019-06-01T11:44:00.490Z,42.36
2019-06-01T11:46:31.285Z,43.84
2019-06-01T11:49:02.359Z,43.77
2019-06-01T11:51:33.155Z,43.08
2019-06-01T11:54:04.468Z,44.50
2019-06-01T11:56:35.323Z,43.07
2019-06-01T11:59:06.187Z,43.71
2019-06-01T12:01:37.777Z,43.86
2019-06-01T12:04:08.731Z,44.26
2019-06-01T12:06:39.911Z,45.16
2019-06-01T12:09:11.687Z,45.22
2019-06-01T12:11:44.134Z,46.11
2019-06-01T12:14:16.409Z,43.90
2019-06-01T12:16:47.515Z,43.19
2019-06-01T12:19:19.060Z,42.35
2019-06-01T12:21:50.325Z,42.08
2019-06-01T12:24:25.524Z,43.69
2019-06-01T12:26:54.448Z,43.53
2019-06-01T12:29:25.511Z,42.46
2019-06-01T12:31:56.520Z,44.95
2019-06-01T12:34:27.684Z,44.42
2019-06-01T12:36:58.894Z,43.25
2019-06-01T12:39:30.390Z,44.59
2019-06-01T12:42:01.473Z,44.68
2019-06-01T12:44:32.356Z,42.90
2019-06-01T12:47:03.307Z,44.02
2019-06-01T12:49:34.598Z,44.87
2019-06-01T12:52:05.488Z,43.94
2019-06-01T12:54:36.525Z,45.51
2019-06-01T12:57:07.344Z,44.81
2019-06-01T12:59:38.443Z,43.18
2019-06-01T13:02:09.869Z,44.11
2019-06-01T13:04:42.651Z,43.72
2019-06-01T13:07:13.832Z,43.32
2019-06-01T13:09:46.113Z,43.50
2019-06-01T13:12:17.024Z,41.65
2019-06-01T13:14:49.250Z,42.21
2019-06-01T13:17:20.247Z,42.87
2019-06-01T13:19:51.580Z,42.29
2019-06-01T13:22:22.796Z,42.56
2019-06-01T13:24:53.773Z,42.58
2019-06-01T13:27:24.657Z,42.41
2019-06-01T13:29:55.784Z,42.06
2019-06-01T13:32:26.834Z,42.21
2019-06-01T13:34:57.873Z,41.85
2019-06-01T13:37:28.859Z,41.75
2019-06-01T13:40:00.014Z,41.25
2019-06-01T13:42:30.833Z,39.57
2019-06-01T13:45:01.675Z,39.89
2019-06-01T13:47:32.964Z,42.25
2019-06-01T13:50:06.742Z,40.28
2019-06-01T13:52:36.891Z,38.64
2019-06-01T13:55:09.314Z,38.69
2019-06-01T13:57:40.466Z,39.72
2019-06-01T14:00:15.573Z,40.02
2019-06-01T14:02:50.407Z,39.90
2019-06-01T14:05:18.483Z,39.08
2019-06-01T14:07:49.614Z,39.37
2019-06-01T14:10:21.000Z,39.77
2019-06-01T14:12:51.815Z,39.36
2019-06-01T14:15:22.697Z,39.74
2019-06-01T14:17:54.553Z,40.89
2019-06-01T14:20:25.630Z,41.12
2019-06-01T14:22:56.638Z,41.93
2019-06-01T14:25:27.561Z,40.72
2019-06-01T14:27:58.495Z,40.70
2019-06-01T14:30:29.771Z,40.92
2019-06-01T14:33:00.971Z,40.74
2019-06-01T14:35:35.721Z,40.53
2019-06-01T14:38:05.966Z,40.62
2019-06-01T14:40:36.907Z,40.55
2019-06-01T14:43:08.107Z,41.60
2019-06-01T14:45:39.245Z,41.48
2019-06-01T14:48:10.471Z,41.59
2019-06-01T14:50:41.800Z,41.00
2019-06-01T14:53:12.951Z,41.31
2019-06-01T14:55:44.259Z,41.18
2019-06-01T14:58:15.374Z,41.24
2019-06-01T15:00:46.396Z,41.63
2019-06-01T15:03:17.408Z,41.53
2019-06-01T15:05:50.174Z,41.55
2019-06-01T15:08:21.201Z,41.37
2019-06-01T15:10:53.430Z,41.54
2019-06-01T15:13:24.986Z,42.02
2019-06-01T15:15:57.652Z,41.78
2019-06-01T15:18:28.630Z,41.55
2019-06-01T15:20:59.590Z,41.41
2019-06-01T15:23:30.807Z,41.85
2019-06-01T15:26:02.923Z,43.18
2019-06-01T15:28:34.207Z,43.83
2019-06-01T15:31:05.179Z,44.29
2019-06-01T15:33:36.342Z,44.32
2019-06-01T15:36:07.679Z,45.66
2019-06-01T15:38:38.721Z,46.16
2019-06-01T15:41:09.776Z,45.92
2019-06-01T15:43:40.863Z,46.41
2019-06-01T15:46:12.450Z,45.19
2019-06-01T15:48:43.584Z,45.46
2019-06-01T15:51:14.666Z,46.09
2019-06-01T15:53:45.897Z,46.35
2019-06-01T15:56:17.203Z,46.52
2019-06-01T15:58:52.878Z,46.68
2019-06-01T16:01:21.107Z,46.74
2019-06-01T16:03:55.094Z,46.88
2019-06-01T16:06:27.414Z,46.56
2019-06-01T16:08:59.335Z,46.85
2019-06-01T16:11:31.436Z,46.74
2019-06-01T16:14:03.919Z,46.77
2019-06-01T16:16:34.992Z,46.83
2019-06-01T16:19:07.925Z,47.04
2019-06-01T16:21:39.080Z,46.83
2019-06-01T16:24:11.271Z,47.10
2019-06-01T16:26:42.437Z,47.09
2019-06-01T16:29:13.481Z,46.30
2019-06-01T16:31:44.499Z,45.86
2019-06-01T16:34:15.455Z,46.02
2019-06-01T16:36:46.676Z,46.14
2019-06-01T16:39:17.632Z,46.44
2019-06-01T16:41:48.655Z,48.64
2019-06-01T16:44:20.069Z,50.60
2019-06-01T16:46:51.216Z,52.65
2019-06-01T16:49:22.194Z,53.63
2019-06-01T16:51:59.112Z,54.54
2019-06-01T16:54:31.482Z,55.17
2019-06-01T16:57:03.014Z,56.09
2019-06-01T16:59:34.078Z,56.80
2019-06-01T17:02:06.079Z,56.94
2019-06-01T17:04:37.102Z,58.04
2019-06-01T17:07:08.794Z,58.48
2019-06-01T17:09:39.846Z,58.96
2019-06-01T17:12:10.801Z,59.42
2019-06-01T17:14:41.569Z,59.63
2019-06-01T17:17:12.510Z,59.75
2019-06-01T17:19:43.892Z,59.90
2019-06-01T17:22:15.225Z,60.61
2019-06-01T17:24:46.347Z,60.54
2019-06-01T17:27:17.267Z,60.83
2019-06-01T17:29:48.179Z,61.27
2019-06-01T17:32:24.495Z,61.08
2019-06-01T17:34:52.687Z,61.67
2019-06-01T17:37:23.496Z,62.00
2019-06-01T17:39:54.404Z,62.27
2019-06-01T17:42:25.299Z,62.26
2019-06-01T17:44:56.146Z,62.69
2019-06-01T17:47:28.452Z,62.44
2019-06-01T17:49:59.312Z,63.29
2019-06-01T17:52:30.280Z,62.99
2019-06-01T17:55:01.133Z,63.76
2019-06-01T17:57:33.281Z,63.76
2019-06-01T18:00:05.663Z,63.48
2019-06-01T18:02:38.262Z,63.70
2019-06-01T18:05:10.125Z,64.07
2019-06-01T18:07:41.453Z,63.79
2019-06-01T18:10:12.577Z,64.13
2019-06-01T18:12:43.574Z,63.94
2019-06-01T18:15:15.318Z,64.39
2019-06-01T18:17:46.391Z,64.12
2019-06-01T18:20:18.012Z,64.46
2019-06-01T18:22:49.169Z,64.42
2019-06-01T18:25:23.012Z,64.76
2019-06-01T18:27:54.412Z,64.12
2019-06-01T18:30:26.242Z,64.29
2019-06-01T18:32:58.243Z,64.69
2019-06-01T18:35:29.416Z,64.75
2019-06-01T18:38:00.710Z,64.74
2019-06-01T18:40:31.985Z,65.32
2019-06-01T18:43:07.850Z,65.31
2019-06-01T18:45:39.482Z,65.66
2019-06-01T18:48:12.269Z,65.44
2019-06-01T18:50:43.638Z,65.71
2019-06-01T18:53:15.034Z,66.20
2019-06-01T18:55:46.129Z,66.19
2019-06-01T18:58:17.296Z,66.03
2019-06-01T19:00:48.583Z,66.47
2019-06-01T19:03:20.868Z,67.02
2019-06-01T19:05:52.098Z,67.05
2019-06-01T19:08:25.056Z,67.07
2019-06-01T19:10:58.639Z,67.52
2019-06-01T19:13:29.993Z,67.05
2019-06-01T19:16:00.957Z,67.15
2019-06-01T19:18:31.947Z,67.37
2019-06-01T19:21:03.081Z,67.94
2019-06-01T19:23:34.048Z,68.79
2019-06-01T19:26:09.133Z,69.54
2019-06-01T19:28:37.850Z,70.07
2019-06-01T19:31:08.842Z,69.91
2019-06-01T19:33:40.214Z,69.38
2019-06-01T19:36:11.180Z,69.20
2019-06-01T19:38:43.880Z,69.25
2019-06-01T19:41:15.526Z,68.65
2019-06-01T19:43:46.600Z,69.18
2019-06-01T19:46:18.798Z,69.39
2019-06-01T19:48:50.035Z,70.38
2019-06-01T19:51:21.296Z,69.51
2019-06-01T19:53:52.226Z,70.34
2019-06-01T19:56:24.083Z,71.38
2019-06-01T19:58:54.942Z,70.53
2019-06-01T20:01:26.205Z,70.08
2019-06-01T20:03:57.062Z,70.62
2019-06-01T20:06:29.309Z,71.02
2019-06-01T20:09:01.220Z,71.76
2019-06-01T20:11:33.958Z,71.16
2019-06-01T20:14:05.311Z,72.29
2019-06-01T20:16:37.131Z,71.55
2019-06-01T20:19:08.283Z,71.48
2019-06-01T20:21:39.417Z,71.30
2019-06-01T20:24:11.094Z,71.89
2019-06-01T20:26:48.946Z,71.14
2019-06-01T20:29:17.577Z,71.86
2019-06-01T20:31:48.795Z,70.46
2019-06-01T20:34:20.178Z,70.71
2019-06-01T20:36:51.304Z,70.80
2019-06-01T20:39:22.574Z,70.12
2019-06-01T20:41:53.903Z,70.12
2019-06-01T20:44:25.409Z,70.73
2019-06-01T20:46:56.649Z,70.54
2019-06-01T20:49:27.987Z,70.72
2019-06-01T20:51:59.057Z,70.93
2019-06-01T20:54:30.215Z,70.44
2019-06-01T20:57:01.402Z,71.27
2019-06-01T20:59:32.481Z,71.43
2019-06-01T21:02:03.569Z,70.36
2019-06-01T21:04:34.748Z,70.94
2019-06-01T21:07:06.040Z,71.42
2019-06-01T21:09:37.060Z,71.77
2019-06-01T21:12:09.831Z,71.45
2019-06-01T21:14:41.157Z,71.81
2019-06-01T21:17:12.634Z,71.49
2019-06-01T21:19:44.111Z,72.02
2019-06-01T21:22:16.449Z,72.42
2019-06-01T21:24:47.723Z,72.17
2019-06-01T21:27:19.024Z,72.10
2019-06-01T21:29:50.550Z,71.29
2019-06-01T21:32:23.670Z,72.02
2019-06-01T21:34:55.893Z,71.90
2019-06-01T21:37:27.305Z,71.24
2019-06-01T21:39:58.472Z,70.93
2019-06-01T21:42:29.806Z,71.26
2019-06-01T21:45:01.150Z,71.24
2019-06-01T21:47:32.237Z,71.19
2019-06-01T21:50:03.506Z,72.19
2019-06-01T21:52:34.764Z,71.33
2019-06-01T21:55:06.492Z,72.12
2019-06-01T21:57:37.607Z,74.17
2019-06-01T22:00:10.522Z,76.36
2019-06-01T22:02:43.390Z,78.47
2019-06-01T22:05:16.898Z,78.47
2019-06-01T22:07:48.698Z,79.31
2019-06-01T22:10:30.366Z,81.24
2019-06-01T22:13:18.190Z,81.20
2019-06-01T22:15:41.858Z,83.51
2019-06-01T22:18:15.475Z,83.79
2019-06-01T22:20:53.973Z,84.82
2019-06-01T22:23:26.005Z,87.81
2019-06-01T22:25:57.197Z,87.75
2019-06-01T22:28:28.715Z,88.16
2019-06-01T22:30:59.907Z,89.07
2019-06-01T22:33:31.611Z,88.64
2019-06-01T22:36:02.595Z,89.66
2019-06-01T22:38:34.118Z,90.89
2019-06-01T22:41:05.346Z,91.94
2019-06-01T22:43:45.765Z,91.94
2019-06-01T22:46:09.772Z,91.83
2019-06-01T22:48:41.095Z,91.55
2019-06-01T22:51:12.150Z,91.55
2019-06-01T22:53:43.080Z,92.43
2019-06-01T22:56:14.324Z,92.07
2019-06-01T22:58:45.488Z,91.85
2019-06-01T23:01:17.719Z,91.09
2019-06-01T23:03:48.860Z,89.91
2019-06-01T23:06:20.849Z,90.14
2019-06-01T23:08:51.915Z,89.65
2019-06-01T23:11:23.240Z,89.65
2019-06-01T23:13:54.270Z,88.65
2019-06-01T23:16:25.672Z,88.19
2019-06-01T23:18:56.784Z,88.27
2019-06-01T23:21:27.904Z,88.25
2019-06-01T23:23:59.232Z,88.83
2019-06-01T23:26:30.427Z,88.83
2019-06-01T23:29:01.514Z,89.18
2019-06-01T23:31:32.651Z,90.20
2019-06-01T23:34:04.835Z,90.46
2019-06-01T23:36:35.866Z,90.90
2019-06-01T23:39:07.503Z,90.43
2019-06-01T23:41:38.448Z,90.42
2019-06-01T23:44:12.102Z,89.71
2019-06-01T23:46:42.157Z,89.75
2019-06-01T23:49:13.231Z,89.57
2019-06-01T23:51:44.207Z,89.39
2019-06-01T23:54:15.116Z,89.28
2019-06-01T23:56:46.026Z,88.39
2019-06-01T23:59:16.957Z,88.64
